sensor_id;sensor_type;location;lat;lon;timestamp;P1;durP1;ratioP1;P2;durP2;ratioP2
54464;SDS011;40374;49.480;20.016;2023-03-23T00:01:10;222.32;;;101.10;;
54464;SDS011;40374;49.480;20.016;2023-03-23T00:03:39;237.65;;;102.43;;
54464;SDS011;40374;49.480;20.016;2023-03-23T00:06:07;243.80;;;103.95;;
54464;SDS011;40374;49.480;20.016;2023-03-23T00:08:37;225.85;;;101.15;;
54464;SDS011;40374;49.480;20.016;2023-03-23T00:11:15;216.60;;;94.50;;
54464;SDS011;40374;49.480;20.016;2023-03-23T00:13:45;231.32;;;100.15;;
54464;SDS011;40374;49.480;20.016;2023-03-23T00:16:13;225.13;;;99.18;;
54464;SDS011;40374;49.480;20.016;2023-03-23T00:18:46;227.93;;;101.07;;
54464;SDS011;40374;49.480;20.016;2023-03-23T00:21:15;231.20;;;101.93;;
54464;SDS011;40374;49.480;20.016;2023-03-23T00:23:41;247.38;;;100.88;;
54464;SDS011;40374;49.480;20.016;2023-03-23T00:26:10;233.18;;;100.03;;
54464;SDS011;40374;49.480;20.016;2023-03-23T00:28:38;225.10;;;101.05;;
54464;SDS011;40374;49.480;20.016;2023-03-23T00:31:05;224.38;;;99.78;;
54464;SDS011;40374;49.480;20.016;2023-03-23T00:33:35;221.05;;;101.32;;
54464;SDS011;40374;49.480;20.016;2023-03-23T00:36:09;266.00;;;108.18;;
54464;SDS011;40374;49.480;20.016;2023-03-23T00:38:37;224.27;;;99.97;;
54464;SDS011;40374;49.480;20.016;2023-03-23T00:41:05;248.38;;;102.30;;
54464;SDS011;40374;49.480;20.016;2023-03-23T00:43:32;239.43;;;100.88;;
54464;SDS011;40374;49.480;20.016;2023-03-23T00:46:02;248.40;;;106.38;;
54464;SDS011;40374;49.480;20.016;2023-03-23T00:48:35;242.27;;;102.80;;
54464;SDS011;40374;49.480;20.016;2023-03-23T00:51:10;233.70;;;100.80;;
54464;SDS011;40374;49.480;20.016;2023-03-23T00:53:38;239.35;;;102.20;;
54464;SDS011;40374;49.480;20.016;2023-03-23T00:56:05;236.18;;;102.57;;
54464;SDS011;40374;49.480;20.016;2023-03-23T00:58:34;262.77;;;104.88;;
54464;SDS011;40374;49.480;20.016;2023-03-23T01:01:01;238.23;;;100.65;;
54464;SDS011;40374;49.480;20.016;2023-03-23T01:03:28;241.05;;;100.15;;
54464;SDS011;40374;49.480;20.016;2023-03-23T01:05:58;227.98;;;98.68;;
54464;SDS011;40374;49.480;20.016;2023-03-23T01:08:31;252.75;;;100.95;;
54464;SDS011;40374;49.480;20.016;2023-03-23T01:11:01;243.63;;;97.43;;
54464;SDS011;40374;49.480;20.016;2023-03-23T01:13:32;231.70;;;97.65;;
54464;SDS011;40374;49.480;20.016;2023-03-23T01:15:59;246.38;;;98.80;;
54464;SDS011;40374;49.480;20.016;2023-03-23T01:18:25;209.73;;;88.22;;
54464;SDS011;40374;49.480;20.016;2023-03-23T01:20:51;221.20;;;81.18;;
54464;SDS011;40374;49.480;20.016;2023-03-23T01:23:18;195.00;;;80.95;;
54464;SDS011;40374;49.480;20.016;2023-03-23T01:25:44;190.43;;;76.70;;
54464;SDS011;40374;49.480;20.016;2023-03-23T01:28:11;199.90;;;79.05;;
54464;SDS011;40374;49.480;20.016;2023-03-23T01:30:37;195.45;;;79.07;;
54464;SDS011;40374;49.480;20.016;2023-03-23T01:33:03;187.30;;;79.28;;
54464;SDS011;40374;49.480;20.016;2023-03-23T01:35:29;204.35;;;78.07;;
54464;SDS011;40374;49.480;20.016;2023-03-23T01:37:56;201.52;;;77.55;;
54464;SDS011;40374;49.480;20.016;2023-03-23T01:40:22;204.90;;;81.22;;
54464;SDS011;40374;49.480;20.016;2023-03-23T01:42:48;192.50;;;78.78;;
54464;SDS011;40374;49.480;20.016;2023-03-23T01:47:46;200.98;;;82.38;;
54464;SDS011;40374;49.480;20.016;2023-03-23T01:50:17;205.73;;;83.03;;
54464;SDS011;40374;49.480;20.016;2023-03-23T01:52:49;198.55;;;79.95;;
54464;SDS011;40374;49.480;20.016;2023-03-23T01:55:18;195.80;;;82.82;;
54464;SDS011;40374;49.480;20.016;2023-03-23T01:57:47;208.05;;;84.78;;
54464;SDS011;40374;49.480;20.016;2023-03-23T02:00:16;214.82;;;82.43;;
54464;SDS011;40374;49.480;20.016;2023-03-23T02:02:50;200.27;;;85.00;;
54464;SDS011;40374;49.480;20.016;2023-03-23T02:08:28;209.05;;;85.20;;
54464;SDS011;40374;49.480;20.016;2023-03-23T02:10:59;193.60;;;77.90;;
54464;SDS011;40374;49.480;20.016;2023-03-23T02:13:26;198.15;;;85.75;;
54464;SDS011;40374;49.480;20.016;2023-03-23T02:15:59;201.35;;;83.03;;
54464;SDS011;40374;49.480;20.016;2023-03-23T02:32:14;201.27;;;81.63;;
54464;SDS011;40374;49.480;20.016;2023-03-23T02:34:51;201.82;;;79.93;;
54464;SDS011;40374;49.480;20.016;2023-03-23T02:37:27;177.63;;;74.78;;
54464;SDS011;40374;49.480;20.016;2023-03-23T02:40:09;171.30;;;75.03;;
54464;SDS011;40374;49.480;20.016;2023-03-23T02:42:42;194.38;;;79.93;;
54464;SDS011;40374;49.480;20.016;2023-03-23T02:45:13;190.73;;;77.75;;
54464;SDS011;40374;49.480;20.016;2023-03-23T02:47:41;190.85;;;78.25;;
54464;SDS011;40374;49.480;20.016;2023-03-23T02:50:09;167.52;;;73.45;;
54464;SDS011;40374;49.480;20.016;2023-03-23T02:52:39;185.15;;;76.75;;
54464;SDS011;40374;49.480;20.016;2023-03-23T02:55:07;179.68;;;77.03;;
54464;SDS011;40374;49.480;20.016;2023-03-23T02:57:38;187.68;;;76.07;;
54464;SDS011;40374;49.480;20.016;2023-03-23T03:00:07;203.73;;;78.75;;
54464;SDS011;40374;49.480;20.016;2023-03-23T03:02:37;207.05;;;82.13;;
54464;SDS011;40374;49.480;20.016;2023-03-23T03:08:44;193.23;;;78.30;;
54464;SDS011;40374;49.480;20.016;2023-03-23T03:11:04;183.68;;;76.70;;
54464;SDS011;40374;49.480;20.016;2023-03-23T03:16:33;183.80;;;77.47;;
54464;SDS011;40374;49.480;20.016;2023-03-23T03:21:45;184.57;;;73.68;;
54464;SDS011;40374;49.480;20.016;2023-03-23T03:24:19;181.70;;;75.90;;
54464;SDS011;40374;49.480;20.016;2023-03-23T03:26:51;197.52;;;77.45;;
54464;SDS011;40374;49.480;20.016;2023-03-23T03:29:30;205.65;;;78.22;;
54464;SDS011;40374;49.480;20.016;2023-03-23T03:32:00;336.52;;;84.38;;
54464;SDS011;40374;49.480;20.016;2023-03-23T03:34:31;182.35;;;75.68;;
54464;SDS011;40374;49.480;20.016;2023-03-23T03:36:59;208.48;;;79.88;;
54464;SDS011;40374;49.480;20.016;2023-03-23T03:39:26;201.75;;;79.65;;
54464;SDS011;40374;49.480;20.016;2023-03-23T03:41:54;184.68;;;75.47;;
54464;SDS011;40374;49.480;20.016;2023-03-23T03:44:20;187.48;;;77.13;;
54464;SDS011;40374;49.480;20.016;2023-03-23T03:46:47;196.45;;;81.00;;
54464;SDS011;40374;49.480;20.016;2023-03-23T03:49:13;203.90;;;82.93;;
54464;SDS011;40374;49.480;20.016;2023-03-23T03:51:42;205.52;;;84.70;;
54464;SDS011;40374;49.480;20.016;2023-03-23T03:54:16;196.15;;;84.00;;
54464;SDS011;40374;49.480;20.016;2023-03-23T03:56:42;196.35;;;83.63;;
54464;SDS011;40374;49.480;20.016;2023-03-23T03:59:35;195.10;;;82.10;;
54464;SDS011;40374;49.480;20.016;2023-03-23T04:02:20;177.40;;;72.07;;
54464;SDS011;40374;49.480;20.016;2023-03-23T04:04:49;160.88;;;71.40;;
54464;SDS011;40374;49.480;20.016;2023-03-23T04:07:18;174.15;;;74.43;;
54464;SDS011;40374;49.480;20.016;2023-03-23T04:09:45;171.25;;;72.68;;
54464;SDS011;40374;49.480;20.016;2023-03-23T04:12:16;161.00;;;66.75;;
54464;SDS011;40374;49.480;20.016;2023-03-23T04:15:14;171.38;;;69.82;;
54464;SDS011;40374;49.480;20.016;2023-03-23T04:17:41;167.32;;;68.60;;
54464;SDS011;40374;49.480;20.016;2023-03-23T04:20:08;170.38;;;68.53;;
54464;SDS011;40374;49.480;20.016;2023-03-23T04:22:41;166.20;;;64.00;;
54464;SDS011;40374;49.480;20.016;2023-03-23T04:25:09;139.73;;;59.65;;
54464;SDS011;40374;49.480;20.016;2023-03-23T04:27:40;141.13;;;61.42;;
54464;SDS011;40374;49.480;20.016;2023-03-23T04:30:10;138.63;;;61.72;;
54464;SDS011;40374;49.480;20.016;2023-03-23T04:32:59;141.65;;;58.88;;
54464;SDS011;40374;49.480;20.016;2023-03-23T04:35:28;139.48;;;62.50;;
54464;SDS011;40374;49.480;20.016;2023-03-23T04:38:12;135.50;;;59.92;;
54464;SDS011;40374;49.480;20.016;2023-03-23T04:40:43;140.98;;;59.80;;
54464;SDS011;40374;49.480;20.016;2023-03-23T04:43:25;136.10;;;57.30;;
54464;SDS011;40374;49.480;20.016;2023-03-23T04:46:15;130.70;;;58.10;;
54464;SDS011;40374;49.480;20.016;2023-03-23T04:48:45;136.75;;;60.35;;
54464;SDS011;40374;49.480;20.016;2023-03-23T04:51:18;130.15;;;58.00;;
54464;SDS011;40374;49.480;20.016;2023-03-23T04:53:48;116.38;;;50.85;;
54464;SDS011;40374;49.480;20.016;2023-03-23T04:56:15;123.45;;;53.88;;
54464;SDS011;40374;49.480;20.016;2023-03-23T04:58:44;122.03;;;56.20;;
54464;SDS011;40374;49.480;20.016;2023-03-23T05:01:36;133.50;;;56.35;;
54464;SDS011;40374;49.480;20.016;2023-03-23T05:04:20;117.47;;;54.17;;
54464;SDS011;40374;49.480;20.016;2023-03-23T05:07:03;127.65;;;56.30;;
54464;SDS011;40374;49.480;20.016;2023-03-23T05:09:33;129.98;;;58.72;;
54464;SDS011;40374;49.480;20.016;2023-03-23T05:12:05;130.88;;;56.88;;
54464;SDS011;40374;49.480;20.016;2023-03-23T05:14:41;134.40;;;58.63;;
54464;SDS011;40374;49.480;20.016;2023-03-23T05:17:11;124.53;;;56.70;;
54464;SDS011;40374;49.480;20.016;2023-03-23T05:19:38;123.47;;;55.60;;
54464;SDS011;40374;49.480;20.016;2023-03-23T05:22:20;123.13;;;54.95;;
54464;SDS011;40374;49.480;20.016;2023-03-23T05:24:49;123.40;;;55.15;;
54464;SDS011;40374;49.480;20.016;2023-03-23T05:27:18;119.72;;;56.10;;
54464;SDS011;40374;49.480;20.016;2023-03-23T05:29:47;123.88;;;54.25;;
54464;SDS011;40374;49.480;20.016;2023-03-23T05:32:15;117.43;;;52.53;;
54464;SDS011;40374;49.480;20.016;2023-03-23T05:34:44;102.40;;;51.22;;
54464;SDS011;40374;49.480;20.016;2023-03-23T05:37:12;113.07;;;53.95;;
54464;SDS011;40374;49.480;20.016;2023-03-23T05:39:46;108.45;;;52.72;;
54464;SDS011;40374;49.480;20.016;2023-03-23T05:42:39;111.72;;;50.53;;
54464;SDS011;40374;49.480;20.016;2023-03-23T05:45:18;107.22;;;52.35;;
54464;SDS011;40374;49.480;20.016;2023-03-23T05:47:46;111.10;;;53.35;;
54464;SDS011;40374;49.480;20.016;2023-03-23T05:50:18;114.03;;;55.88;;
54464;SDS011;40374;49.480;20.016;2023-03-23T05:52:45;110.50;;;53.60;;
54464;SDS011;40374;49.480;20.016;2023-03-23T05:55:14;114.22;;;54.38;;
54464;SDS011;40374;49.480;20.016;2023-03-23T05:57:45;110.85;;;50.60;;
54464;SDS011;40374;49.480;20.016;2023-03-23T06:00:25;112.18;;;47.97;;
54464;SDS011;40374;49.480;20.016;2023-03-23T06:03:03;104.10;;;44.92;;
54464;SDS011;40374;49.480;20.016;2023-03-23T06:05:44;93.18;;;42.72;;
54464;SDS011;40374;49.480;20.016;2023-03-23T06:08:12;98.88;;;42.22;;
54464;SDS011;40374;49.480;20.016;2023-03-23T06:10:39;97.50;;;41.83;;
54464;SDS011;40374;49.480;20.016;2023-03-23T06:13:05;90.90;;;41.05;;
54464;SDS011;40374;49.480;20.016;2023-03-23T06:15:36;91.65;;;39.30;;
54464;SDS011;40374;49.480;20.016;2023-03-23T06:18:14;96.30;;;41.10;;
54464;SDS011;40374;49.480;20.016;2023-03-23T06:20:56;97.75;;;40.55;;
54464;SDS011;40374;49.480;20.016;2023-03-23T06:23:41;124.78;;;46.28;;
54464;SDS011;40374;49.480;20.016;2023-03-23T06:26:08;156.23;;;55.72;;
54464;SDS011;40374;49.480;20.016;2023-03-23T06:28:38;154.98;;;57.80;;
54464;SDS011;40374;49.480;20.016;2023-03-23T06:31:05;187.57;;;65.28;;
54464;SDS011;40374;49.480;20.016;2023-03-23T06:33:34;165.07;;;54.88;;
54464;SDS011;40374;49.480;20.016;2023-03-23T06:36:20;159.02;;;61.00;;
54464;SDS011;40374;49.480;20.016;2023-03-23T06:39:06;86.28;;;40.83;;
54464;SDS011;40374;49.480;20.016;2023-03-23T06:44:33;73.93;;;31.92;;
54464;SDS011;40374;49.480;20.016;2023-03-23T06:46:59;72.70;;;31.88;;
54464;SDS011;40374;49.480;20.016;2023-03-23T06:49:34;76.65;;;35.75;;
54464;SDS011;40374;49.480;20.016;2023-03-23T06:52:13;79.40;;;40.28;;
54464;SDS011;40374;49.480;20.016;2023-03-23T06:54:39;88.70;;;39.20;;
54464;SDS011;40374;49.480;20.016;2023-03-23T06:57:07;76.07;;;37.78;;
54464;SDS011;40374;49.480;20.016;2023-03-23T06:59:33;80.70;;;36.97;;
54464;SDS011;40374;49.480;20.016;2023-03-23T07:02:01;69.82;;;35.10;;
54464;SDS011;40374;49.480;20.016;2023-03-23T07:04:28;69.53;;;35.00;;
54464;SDS011;40374;49.480;20.016;2023-03-23T07:07:05;72.57;;;34.35;;
54464;SDS011;40374;49.480;20.016;2023-03-23T07:09:41;65.82;;;33.85;;
54464;SDS011;40374;49.480;20.016;2023-03-23T07:12:08;70.47;;;33.25;;
54464;SDS011;40374;49.480;20.016;2023-03-23T07:14:41;63.35;;;32.60;;
54464;SDS011;40374;49.480;20.016;2023-03-23T07:17:07;60.60;;;32.85;;
54464;SDS011;40374;49.480;20.016;2023-03-23T07:19:39;63.90;;;31.48;;
54464;SDS011;40374;49.480;20.016;2023-03-23T07:22:09;63.67;;;30.60;;
54464;SDS011;40374;49.480;20.016;2023-03-23T07:24:36;58.20;;;30.00;;
54464;SDS011;40374;49.480;20.016;2023-03-23T07:27:28;69.38;;;31.25;;
54464;SDS011;40374;49.480;20.016;2023-03-23T07:29:58;72.07;;;29.20;;
54464;SDS011;40374;49.480;20.016;2023-03-23T07:32:26;61.20;;;31.52;;
54464;SDS011;40374;49.480;20.016;2023-03-23T07:34:53;65.45;;;32.10;;
54464;SDS011;40374;49.480;20.016;2023-03-23T07:37:31;63.70;;;30.35;;
54464;SDS011;40374;49.480;20.016;2023-03-23T07:39:58;63.75;;;29.38;;
54464;SDS011;40374;49.480;20.016;2023-03-23T07:42:25;56.13;;;27.55;;
54464;SDS011;40374;49.480;20.016;2023-03-23T07:44:58;66.38;;;30.08;;
54464;SDS011;40374;49.480;20.016;2023-03-23T07:47:24;66.28;;;27.98;;
54464;SDS011;40374;49.480;20.016;2023-03-23T07:49:50;60.17;;;26.73;;
54464;SDS011;40374;49.480;20.016;2023-03-23T07:52:32;56.92;;;24.85;;
54464;SDS011;40374;49.480;20.016;2023-03-23T07:54:59;56.05;;;25.60;;
54464;SDS011;40374;49.480;20.016;2023-03-23T07:57:36;47.63;;;21.15;;
54464;SDS011;40374;49.480;20.016;2023-03-23T08:00:05;39.45;;;19.95;;
54464;SDS011;40374;49.480;20.016;2023-03-23T08:02:41;30.85;;;15.05;;
54464;SDS011;40374;49.480;20.016;2023-03-23T08:05:26;21.50;;;11.50;;
54464;SDS011;40374;49.480;20.016;2023-03-23T08:08:26;19.48;;;9.88;;
54464;SDS011;40374;49.480;20.016;2023-03-23T08:11:01;20.20;;;8.65;;
54464;SDS011;40374;49.480;20.016;2023-03-23T08:14:00;14.07;;;8.48;;
54464;SDS011;40374;49.480;20.016;2023-03-23T08:16:59;23.52;;;9.82;;
54464;SDS011;40374;49.480;20.016;2023-03-23T08:19:51;21.98;;;10.68;;
54464;SDS011;40374;49.480;20.016;2023-03-23T08:22:41;27.27;;;12.93;;
54464;SDS011;40374;49.480;20.016;2023-03-23T08:25:33;30.35;;;12.27;;
54464;SDS011;40374;49.480;20.016;2023-03-23T08:28:20;31.38;;;11.00;;
54464;SDS011;40374;49.480;20.016;2023-03-23T08:31:11;20.65;;;11.25;;
54464;SDS011;40374;49.480;20.016;2023-03-23T08:33:54;21.73;;;11.40;;
54464;SDS011;40374;49.480;20.016;2023-03-23T08:36:32;26.98;;;12.32;;
54464;SDS011;40374;49.480;20.016;2023-03-23T08:39:19;22.20;;;11.73;;
54464;SDS011;40374;49.480;20.016;2023-03-23T08:41:59;30.13;;;11.95;;
54464;SDS011;40374;49.480;20.016;2023-03-23T08:44:44;27.85;;;12.05;;
54464;SDS011;40374;49.480;20.016;2023-03-23T08:47:41;24.40;;;11.10;;
54464;SDS011;40374;49.480;20.016;2023-03-23T08:50:20;22.38;;;11.55;;
54464;SDS011;40374;49.480;20.016;2023-03-23T08:52:58;23.00;;;11.98;;
54464;SDS011;40374;49.480;20.016;2023-03-23T08:55:48;22.42;;;11.00;;
54464;SDS011;40374;49.480;20.016;2023-03-23T08:58:15;23.55;;;11.48;;
54464;SDS011;40374;49.480;20.016;2023-03-23T09:01:00;33.97;;;14.07;;
54464;SDS011;40374;49.480;20.016;2023-03-23T09:03:40;32.13;;;15.75;;
54464;SDS011;40374;49.480;20.016;2023-03-23T09:06:26;27.48;;;11.02;;
54464;SDS011;40374;49.480;20.016;2023-03-23T09:08:53;19.67;;;10.13;;
54464;SDS011;40374;49.480;20.016;2023-03-23T09:11:22;20.80;;;10.25;;
54464;SDS011;40374;49.480;20.016;2023-03-23T09:13:49;19.55;;;10.57;;
54464;SDS011;40374;49.480;20.016;2023-03-23T09:16:15;27.27;;;13.88;;
54464;SDS011;40374;49.480;20.016;2023-03-23T09:18:42;26.33;;;12.63;;
54464;SDS011;40374;49.480;20.016;2023-03-23T09:21:09;27.17;;;12.45;;
54464;SDS011;40374;49.480;20.016;2023-03-23T09:23:36;20.83;;;10.30;;
54464;SDS011;40374;49.480;20.016;2023-03-23T09:26:02;27.27;;;10.52;;
54464;SDS011;40374;49.480;20.016;2023-03-23T09:28:29;24.80;;;10.10;;
54464;SDS011;40374;49.480;20.016;2023-03-23T09:30:57;20.40;;;10.35;;
54464;SDS011;40374;49.480;20.016;2023-03-23T09:33:24;27.27;;;11.90;;
54464;SDS011;40374;49.480;20.016;2023-03-23T09:35:51;32.70;;;18.40;;
54464;SDS011;40374;49.480;20.016;2023-03-23T09:38:18;8.82;;;4.63;;
54464;SDS011;40374;49.480;20.016;2023-03-23T09:40:46;6.03;;;2.88;;
54464;SDS011;40374;49.480;20.016;2023-03-23T09:43:36;7.35;;;2.63;;
54464;SDS011;40374;49.480;20.016;2023-03-23T09:46:24;5.47;;;3.45;;
54464;SDS011;40374;49.480;20.016;2023-03-23T09:49:08;4.88;;;3.53;;
54464;SDS011;40374;49.480;20.016;2023-03-23T09:51:45;4.50;;;2.80;;
54464;SDS011;40374;49.480;20.016;2023-03-23T09:56:49;5.03;;;2.95;;
54464;SDS011;40374;49.480;20.016;2023-03-23T09:59:24;4.28;;;2.92;;
54464;SDS011;40374;49.480;20.016;2023-03-23T10:01:58;4.90;;;3.00;;
54464;SDS011;40374;49.480;20.016;2023-03-23T10:04:48;9.68;;;4.45;;
54464;SDS011;40374;49.480;20.016;2023-03-23T10:07:20;8.23;;;3.50;;
54464;SDS011;40374;49.480;20.016;2023-03-23T10:09:51;5.03;;;3.22;;
54464;SDS011;40374;49.480;20.016;2023-03-23T10:12:32;5.32;;;3.38;;
54464;SDS011;40374;49.480;20.016;2023-03-23T10:20:42;3.90;;;3.00;;
54464;SDS011;40374;49.480;20.016;2023-03-23T10:25:48;4.45;;;2.75;;
54464;SDS011;40374;49.480;20.016;2023-03-23T10:28:19;8.57;;;3.97;;
54464;SDS011;40374;49.480;20.016;2023-03-23T10:30:53;5.65;;;2.78;;
54464;SDS011;40374;49.480;20.016;2023-03-23T10:33:43;6.45;;;3.55;;
54464;SDS011;40374;49.480;20.016;2023-03-23T10:39:05;6.38;;;2.80;;
54464;SDS011;40374;49.480;20.016;2023-03-23T10:41:38;8.00;;;3.35;;
54464;SDS011;40374;49.480;20.016;2023-03-23T10:44:09;6.78;;;3.42;;
54464;SDS011;40374;49.480;20.016;2023-03-23T10:46:47;8.57;;;3.10;;
54464;SDS011;40374;49.480;20.016;2023-03-23T10:49:26;5.25;;;3.70;;
54464;SDS011;40374;49.480;20.016;2023-03-23T10:54:39;5.35;;;3.22;;
54464;SDS011;40374;49.480;20.016;2023-03-23T10:57:26;4.07;;;2.90;;
54464;SDS011;40374;49.480;20.016;2023-03-23T10:59:59;5.25;;;3.33;;
54464;SDS011;40374;49.480;20.016;2023-03-23T11:02:32;7.38;;;3.60;;
54464;SDS011;40374;49.480;20.016;2023-03-23T11:05:17;7.22;;;3.58;;
54464;SDS011;40374;49.480;20.016;2023-03-23T11:07:55;4.63;;;3.03;;
54464;SDS011;40374;49.480;20.016;2023-03-23T11:10:28;5.28;;;2.72;;
54464;SDS011;40374;49.480;20.016;2023-03-23T11:13:11;5.60;;;2.75;;
54464;SDS011;40374;49.480;20.016;2023-03-23T11:15:41;7.97;;;2.90;;
54464;SDS011;40374;49.480;20.016;2023-03-23T11:18:12;6.63;;;3.05;;
54464;SDS011;40374;49.480;20.016;2023-03-23T11:20:44;8.02;;;2.85;;
54464;SDS011;40374;49.480;20.016;2023-03-23T11:23:19;5.95;;;2.90;;
54464;SDS011;40374;49.480;20.016;2023-03-23T11:28:42;6.30;;;2.72;;
54464;SDS011;40374;49.480;20.016;2023-03-23T11:31:15;6.43;;;2.75;;
54464;SDS011;40374;49.480;20.016;2023-03-23T11:33:53;4.75;;;2.33;;
54464;SDS011;40374;49.480;20.016;2023-03-23T11:39:21;5.38;;;2.75;;
54464;SDS011;40374;49.480;20.016;2023-03-23T11:41:48;4.15;;;2.40;;
54464;SDS011;40374;49.480;20.016;2023-03-23T11:44:17;3.95;;;2.90;;
54464;SDS011;40374;49.480;20.016;2023-03-23T11:46:46;5.40;;;3.33;;
54464;SDS011;40374;49.480;20.016;2023-03-23T11:52:33;5.50;;;3.13;;
54464;SDS011;40374;49.480;20.016;2023-03-23T11:57:46;6.55;;;2.60;;
54464;SDS011;40374;49.480;20.016;2023-03-23T12:00:16;4.68;;;2.50;;
54464;SDS011;40374;49.480;20.016;2023-03-23T12:02:48;7.32;;;2.35;;
54464;SDS011;40374;49.480;20.016;2023-03-23T12:11:18;6.40;;;3.03;;
54464;SDS011;40374;49.480;20.016;2023-03-23T12:14:13;3.50;;;2.40;;
54464;SDS011;40374;49.480;20.016;2023-03-23T12:17:11;6.68;;;2.70;;
54464;SDS011;40374;49.480;20.016;2023-03-23T12:22:22;3.70;;;2.65;;
54464;SDS011;40374;49.480;20.016;2023-03-23T12:25:32;4.03;;;2.22;;
54464;SDS011;40374;49.480;20.016;2023-03-23T12:44:53;5.75;;;2.47;;
54464;SDS011;40374;49.480;20.016;2023-03-23T12:47:39;3.50;;;2.38;;
54464;SDS011;40374;49.480;20.016;2023-03-23T12:53:00;4.53;;;2.47;;
54464;SDS011;40374;49.480;20.016;2023-03-23T12:55:37;3.97;;;2.47;;
54464;SDS011;40374;49.480;20.016;2023-03-23T12:58:15;5.35;;;2.70;;
54464;SDS011;40374;49.480;20.016;2023-03-23T13:00:55;4.75;;;2.13;;
54464;SDS011;40374;49.480;20.016;2023-03-23T13:06:03;2.08;;;1.88;;
54464;SDS011;40374;49.480;20.016;2023-03-23T13:08:38;2.63;;;2.00;;
54464;SDS011;40374;49.480;20.016;2023-03-23T13:11:12;4.03;;;2.88;;
54464;SDS011;40374;49.480;20.016;2023-03-23T13:13:45;16.25;;;2.22;;
54464;SDS011;40374;49.480;20.016;2023-03-23T13:16:20;3.03;;;2.25;;
54464;SDS011;40374;49.480;20.016;2023-03-23T13:21:43;5.38;;;2.30;;
54464;SDS011;40374;49.480;20.016;2023-03-23T13:24:19;5.60;;;2.30;;
54464;SDS011;40374;49.480;20.016;2023-03-23T13:26:50;5.75;;;2.50;;
54464;SDS011;40374;49.480;20.016;2023-03-23T13:29:18;2.75;;;2.00;;
54464;SDS011;40374;49.480;20.016;2023-03-23T13:31:47;4.88;;;2.33;;
54464;SDS011;40374;49.480;20.016;2023-03-23T13:34:16;4.95;;;2.60;;
54464;SDS011;40374;49.480;20.016;2023-03-23T13:36:44;3.45;;;2.05;;
54464;SDS011;40374;49.480;20.016;2023-03-23T13:39:57;5.90;;;2.10;;
54464;SDS011;40374;49.480;20.016;2023-03-23T13:42:48;2.75;;;2.20;;
54464;SDS011;40374;49.480;20.016;2023-03-23T13:45:22;6.90;;;2.25;;
54464;SDS011;40374;49.480;20.016;2023-03-23T13:47:48;6.15;;;2.35;;
54464;SDS011;40374;49.480;20.016;2023-03-23T14:01:43;5.38;;;2.75;;
54464;SDS011;40374;49.480;20.016;2023-03-23T14:04:11;4.25;;;2.63;;
54464;SDS011;40374;49.480;20.016;2023-03-23T14:06:40;5.65;;;2.70;;
54464;SDS011;40374;49.480;20.016;2023-03-23T14:09:15;6.10;;;2.83;;
54464;SDS011;40374;49.480;20.016;2023-03-23T14:11:54;3.78;;;2.80;;
54464;SDS011;40374;49.480;20.016;2023-03-23T14:14:25;4.90;;;2.55;;
54464;SDS011;40374;49.480;20.016;2023-03-23T14:17:15;2.85;;;1.95;;
54464;SDS011;40374;49.480;20.016;2023-03-23T14:19:46;3.65;;;2.03;;
54464;SDS011;40374;49.480;20.016;2023-03-23T14:22:18;2.83;;;1.95;;
54464;SDS011;40374;49.480;20.016;2023-03-23T14:24:48;3.85;;;2.50;;
54464;SDS011;40374;49.480;20.016;2023-03-23T14:27:16;6.75;;;2.28;;
54464;SDS011;40374;49.480;20.016;2023-03-23T14:29:45;4.18;;;2.10;;
54464;SDS011;40374;49.480;20.016;2023-03-23T14:32:16;2.10;;;1.83;;
54464;SDS011;40374;49.480;20.016;2023-03-23T14:34:46;2.58;;;1.63;;
54464;SDS011;40374;49.480;20.016;2023-03-23T14:37:14;5.18;;;1.98;;
54464;SDS011;40374;49.480;20.016;2023-03-23T14:39:49;10.00;;;3.50;;
54464;SDS011;40374;49.480;20.016;2023-03-23T14:42:19;5.38;;;2.33;;
54464;SDS011;40374;49.480;20.016;2023-03-23T14:44:50;5.95;;;2.22;;
54464;SDS011;40374;49.480;20.016;2023-03-23T14:47:18;2.53;;;2.00;;
54464;SDS011;40374;49.480;20.016;2023-03-23T14:50:18;3.28;;;1.83;;
54464;SDS011;40374;49.480;20.016;2023-03-23T14:52:49;3.13;;;2.30;;
54464;SDS011;40374;49.480;20.016;2023-03-23T14:55:17;6.65;;;3.05;;
54464;SDS011;40374;49.480;20.016;2023-03-23T14:57:46;5.93;;;3.03;;
54464;SDS011;40374;49.480;20.016;2023-03-23T15:00:19;8.20;;;3.20;;
54464;SDS011;40374;49.480;20.016;2023-03-23T15:02:49;9.48;;;3.50;;
54464;SDS011;40374;49.480;20.016;2023-03-23T15:05:38;10.90;;;2.97;;
54464;SDS011;40374;49.480;20.016;2023-03-23T15:08:19;5.03;;;2.92;;
54464;SDS011;40374;49.480;20.016;2023-03-23T15:10:57;5.10;;;3.08;;
54464;SDS011;40374;49.480;20.016;2023-03-23T15:13:42;7.10;;;2.65;;
54464;SDS011;40374;49.480;20.016;2023-03-23T15:16:21;4.95;;;2.88;;
54464;SDS011;40374;49.480;20.016;2023-03-23T15:18:54;6.10;;;2.83;;
54464;SDS011;40374;49.480;20.016;2023-03-23T15:22:13;4.35;;;3.05;;
54464;SDS011;40374;49.480;20.016;2023-03-23T15:24:23;6.88;;;2.90;;
54464;SDS011;40374;49.480;20.016;2023-03-23T15:26:52;10.40;;;3.92;;
54464;SDS011;40374;49.480;20.016;2023-03-23T15:29:20;6.82;;;3.00;;
54464;SDS011;40374;49.480;20.016;2023-03-23T15:31:50;8.30;;;3.13;;
54464;SDS011;40374;49.480;20.016;2023-03-23T15:34:24;5.80;;;2.78;;
54464;SDS011;40374;49.480;20.016;2023-03-23T15:36:55;8.55;;;3.53;;
54464;SDS011;40374;49.480;20.016;2023-03-23T15:39:24;7.65;;;4.53;;
54464;SDS011;40374;49.480;20.016;2023-03-23T15:41:51;20.17;;;10.90;;
54464;SDS011;40374;49.480;20.016;2023-03-23T15:44:23;9.50;;;5.10;;
54464;SDS011;40374;49.480;20.016;2023-03-23T15:47:01;9.25;;;4.85;;
54464;SDS011;40374;49.480;20.016;2023-03-23T15:49:40;15.02;;;9.00;;
54464;SDS011;40374;49.480;20.016;2023-03-23T15:52:08;18.15;;;9.50;;
54464;SDS011;40374;49.480;20.016;2023-03-23T15:54:36;13.60;;;7.28;;
54464;SDS011;40374;49.480;20.016;2023-03-23T15:57:02;25.90;;;12.60;;
54464;SDS011;40374;49.480;20.016;2023-03-23T15:59:29;29.58;;;15.73;;
54464;SDS011;40374;49.480;20.016;2023-03-23T16:01:56;31.83;;;14.15;;
54464;SDS011;40374;49.480;20.016;2023-03-23T16:04:24;19.77;;;10.40;;
54464;SDS011;40374;49.480;20.016;2023-03-23T16:06:54;13.95;;;6.93;;
54464;SDS011;40374;49.480;20.016;2023-03-23T16:09:23;7.65;;;4.55;;
54464;SDS011;40374;49.480;20.016;2023-03-23T16:11:51;9.88;;;4.28;;
54464;SDS011;40374;49.480;20.016;2023-03-23T16:14:18;8.15;;;3.72;;
54464;SDS011;40374;49.480;20.016;2023-03-23T16:16:49;13.02;;;4.22;;
54464;SDS011;40374;49.480;20.016;2023-03-23T16:19:18;6.63;;;3.78;;
54464;SDS011;40374;49.480;20.016;2023-03-23T16:21:51;7.95;;;4.35;;
54464;SDS011;40374;49.480;20.016;2023-03-23T16:24:18;9.60;;;4.60;;
54464;SDS011;40374;49.480;20.016;2023-03-23T16:26:45;11.80;;;5.65;;
54464;SDS011;40374;49.480;20.016;2023-03-23T16:29:14;12.02;;;4.95;;
54464;SDS011;40374;49.480;20.016;2023-03-23T16:32:03;13.50;;;6.35;;